Time;durP1;ratioP1;P1;durP2;ratioP2;P2;SDS_P1;SDS_P2;PMS_P1;PMS_P2;Temp;Humidity;BMP_temperature;BMP_pressure;BME280_temperature;BME280_humidity;BME280_pressure;Samples;Min_cycle;Max_cycle;Signal;HPM_P1;HPM_P2
2021/03/12 00:00:00;;;;;;;4.23;2.70;;;9.30;99.90;;;;;;5051164;28;20508;-46
2021/03/12 00:02:26;;;;;;;6.00;3.00;;;9.30;99.90;;;;;;5052325;28;20801;-46
2021/03/12 00:04:52;;;;;;;8.00;3.43;;;9.10;99.90;;;;;;5052502;28;20471;-46
2021/03/12 00:07:19;;;;;;;8.13;3.27;;;9.60;99.90;;;;;;5052515;28;20435;-46
2021/03/12 00:09:46;;;;;;;4.00;2.97;;;8.70;99.90;;;;;;5051132;28;20469;-46
2021/03/12 00:12:12;;;;;;;7.37;4.27;;;9.30;99.90;;;;;;5052246;28;20528;-46
2021/03/12 00:14:38;;;;;;;6.37;3.57;;;9.40;99.90;;;;;;5050811;28;20716;-46
2021/03/12 00:17:05;;;;;;;19.43;13.07;;;9.30;99.90;;;;;;5052340;28;20433;-45
2021/03/12 00:19:31;;;;;;;11.97;6.00;;;9.40;99.90;;;;;;5052352;28;20456;-46
2021/03/12 00:21:57;;;;;;;8.60;3.80;;;10.00;99.90;;;;;;5051005;28;20439;-46
2021/03/12 00:24:23;;;;;;;7.20;3.00;;;9.30;99.90;;;;;;5050630;28;20467;-46
2021/03/12 00:26:51;;;;;;;4.20;2.77;;;9.70;99.90;;;;;;5050906;28;20462;-46
2021/03/12 00:29:18;;;;;;;5.13;3.03;;;9.50;99.90;;;;;;5050636;28;20612;-46
2021/03/12 00:31:44;;;;;;;5.93;2.53;;;9.30;99.90;;;;;;5051895;28;20573;-45
2021/03/12 00:34:10;;;;;;;8.23;3.07;;;9.80;99.90;;;;;;5051614;28;20519;-47
2021/03/12 00:36:37;;;;;;;5.40;2.50;;;9.60;99.90;;;;;;5050743;28;20466;-47
2021/03/12 00:39:04;;;;;;;10.73;6.17;;;8.80;99.90;;;;;;5050355;28;20841;-46
2021/03/12 00:41:30;;;;;;;22.90;15.93;;;9.10;99.90;;;;;;5051699;28;20432;-46
2021/03/12 00:44:01;;;;;;;8.67;4.83;;;9.40;99.90;;;;;;5050239;28;20860;-46
2021/03/12 00:46:37;;;;;;;8.07;3.73;;;9.40;99.90;;;;;;5050382;28;20453;-46
2021/03/12 00:49:04;;;;;;;5.20;2.73;;;9.50;99.90;;;;;;5050442;28;20473;-46
2021/03/12 00:51:34;;;;;;;5.17;2.90;;;9.30;99.90;;;;;;5050501;28;20483;-46
2021/03/12 00:54:07;;;;;;;7.13;3.73;;;8.90;99.90;;;;;;5051450;28;20820;-46
2021/03/12 00:56:34;;;;;;;4.23;2.40;;;9.50;99.90;;;;;;5050296;28;20454;-46
2021/03/12 00:59:04;;;;;;;3.60;2.90;;;9.50;99.90;;;;;;5049659;28;20482;-46
2021/03/12 01:01:36;;;;;;;4.23;2.70;;;9.00;99.90;;;;;;5050187;28;20527;-47
2021/03/12 01:04:02;;;;;;;5.53;3.10;;;9.00;99.90;;;;;;5050131;28;20442;-46
2021/03/12 01:06:29;;;;;;;7.40;2.90;;;9.20;99.90;;;;;;5051676;28;20485;-46
2021/03/12 01:09:00;;;;;;;7.77;2.93;;;9.20;99.90;;;;;;5050301;28;20986;-46
2021/03/12 01:11:31;;;;;;;4.77;2.53;;;9.10;99.90;;;;;;5050137;28;20479;-46
2021/03/12 01:13:57;;;;;;;5.27;3.13;;;8.90;99.90;;;;;;5049876;28;20520;-46
2021/03/12 01:16:30;;;;;;;5.63;2.30;;;8.90;99.90;;;;;;5050342;28;20462;-46
2021/03/12 01:18:59;;;;;;;4.90;2.63;;;9.40;99.90;;;;;;5050251;28;20474;-46
2021/03/12 01:21:30;;;;;;;3.50;2.50;;;9.10;99.90;;;;;;5050172;28;20447;-46
2021/03/12 01:23:58;;;;;;;6.13;2.60;;;9.00;99.90;;;;;;5049766;28;20514;-46
2021/03/12 01:26:26;;;;;;;5.23;3.00;;;9.20;99.90;;;;;;5050193;28;20458;-46
2021/03/12 01:29:05;;;;;;;5.27;2.80;;;9.00;99.90;;;;;;5050006;28;20459;-46
2021/03/12 01:31:44;;;;;;;4.60;2.80;;;9.40;99.90;;;;;;5049945;28;20452;-46
2021/03/12 01:34:14;;;;;;;4.03;2.50;;;9.00;99.90;;;;;;5049887;28;20540;-46
2021/03/12 01:36:42;;;;;;;4.03;2.00;;;8.90;99.90;;;;;;5050001;28;20454;-46
2021/03/12 01:39:10;;;;;;;3.47;2.63;;;9.10;99.90;;;;;;5049883;28;20516;-47
2021/03/12 01:41:37;;;;;;;3.73;1.97;;;8.80;99.90;;;;;;5050286;28;20801;-46
2021/03/12 01:44:12;;;;;;;4.27;2.50;;;9.10;99.90;;;;;;5051250;28;20816;-46
2021/03/12 01:46:41;;;;;;;3.10;1.80;;;8.70;99.90;;;;;;5051164;28;20443;-46
2021/03/12 01:49:08;;;;;;;5.20;1.93;;;9.20;99.90;;;;;;5049985;28;20849;-46
2021/03/12 01:51:35;;;;;;;3.03;1.63;;;9.00;99.90;;;;;;5049818;28;20478;-46
2021/03/12 01:54:02;;;;;;;6.30;2.17;;;9.20;99.90;;;;;;5049512;28;20448;-46
2021/03/12 01:56:29;;;;;;;3.20;2.00;;;9.00;99.90;;;;;;5051108;28;20430;-47
2021/03/12 01:59:03;;;;;;;2.97;1.90;;;9.30;99.90;;;;;;5049713;28;20531;-47
2021/03/12 02:01:41;;;;;;;6.97;2.20;;;8.50;99.90;;;;;;5049689;28;20556;-46
2021/03/12 02:04:17;;;;;;;3.10;1.97;;;9.10;99.90;;;;;;5049519;28;20442;-47
2021/03/12 02:06:54;;;;;;;6.87;2.40;;;9.40;99.90;;;;;;5049917;28;20947;-47
2021/03/12 02:09:22;;;;;;;3.60;2.30;;;8.90;99.90;;;;;;5051391;28;20806;-46
2021/03/12 02:11:58;;;;;;;2.50;1.70;;;9.30;99.90;;;;;;5051899;28;20478;-46
2021/03/12 02:14:35;;;;;;;4.97;2.60;;;9.50;99.90;;;;;;5053188;28;20969;-46
2021/03/12 02:17:08;;;;;;;4.17;2.33;;;8.90;99.90;;;;;;5053432;28;20491;-46
2021/03/12 02:19:50;;;;;;;4.17;2.37;;;9.00;99.90;;;;;;5054921;28;20476;-46
2021/03/12 02:22:21;;;;;;;4.50;2.20;;;8.90;99.90;;;;;;5053193;28;20523;-46
2021/03/12 02:24:53;;;;;;;7.67;2.50;;;9.00;99.90;;;;;;5053678;28;20446;-46
2021/03/12 02:27:34;;;;;;;3.37;2.17;;;8.70;99.90;;;;;;5054335;28;20443;-45
2021/03/12 02:30:06;;;;;;;2.97;2.30;;;8.80;99.90;;;;;;5053939;28;20479;-46
2021/03/12 02:32:44;;;;;;;3.63;2.47;;;8.80;99.90;;;;;;5053742;28;20558;-45
2021/03/12 02:35:18;;;;;;;7.93;3.03;;;9.20;99.90;;;;;;5055227;28;20500;-45
2021/03/12 02:37:49;;;;;;;2.70;2.40;;;8.70;99.90;;;;;;5054245;28;20528;-46
2021/03/12 02:40:19;;;;;;;5.40;2.13;;;8.80;99.90;;;;;;5054178;28;20875;-46
2021/03/12 02:42:53;;;;;;;4.97;2.63;;;8.20;99.90;;;;;;5052901;28;20462;-46
2021/03/12 02:45:21;;;;;;;5.63;2.70;;;8.50;99.90;;;;;;5052952;28;20550;-46
2021/03/12 02:47:55;;;;;;;6.43;2.67;;;9.10;99.90;;;;;;5052876;28;20486;-45
2021/03/12 02:50:27;;;;;;;3.90;2.60;;;8.80;99.90;;;;;;5052830;28;20500;-44
2021/03/12 02:52:58;;;;;;;5.60;3.00;;;8.30;99.90;;;;;;5052287;28;20922;-45
2021/03/12 02:55:28;;;;;;;5.93;3.30;;;8.40;99.90;;;;;;5052830;28;20449;-45
2021/03/12 02:58:00;;;;;;;6.23;2.50;;;8.30;99.90;;;;;;5052747;28;20453;-45
2021/03/12 03:00:28;;;;;;;2.97;2.60;;;8.40;99.90;;;;;;5057890;23;20497;-46
2021/03/12 03:03:06;;;;;;;3.20;2.33;;;8.30;99.90;;;;;;5032880;28;20476;-47
2021/03/12 03:05:40;;;;;;;4.83;2.90;;;8.30;99.90;;;;;;5033057;28;20887;-46
2021/03/12 03:08:11;;;;;;;5.97;2.20;;;8.20;99.90;;;;;;5034201;28;20486;-49
2021/03/12 03:10:38;;;;;;;4.63;3.30;;;8.30;99.90;;;;;;5031976;28;20560;-46
2021/03/12 03:13:05;;;;;;;3.53;2.33;;;8.30;99.90;;;;;;5031883;28;20496;-47
2021/03/12 03:15:33;;;;;;;5.50;2.60;;;8.10;99.90;;;;;;5033109;28;20464;-47
2021/03/12 03:18:02;;;;;;;3.70;2.00;;;8.40;99.90;;;;;;5033757;28;21011;-47
2021/03/12 03:20:36;;;;;;;3.57;2.23;;;8.40;99.90;;;;;;5034103;28;20609;-48
2021/03/12 03:23:02;;;;;;;5.93;3.03;;;8.00;99.90;;;;;;5032966;28;21172;-46
2021/03/12 03:25:29;;;;;;;5.57;2.27;;;8.20;99.90;;;;;;5034948;28;20446;-51
2021/03/12 03:27:55;;;;;;;6.00;3.30;;;8.40;99.90;;;;;;5034492;28;20459;-47
2021/03/12 03:30:24;;;;;;;5.80;1.80;;;8.00;99.90;;;;;;5035522;28;20457;-46
2021/03/12 03:33:00;;;;;;;2.83;1.77;;;8.00;99.90;;;;;;5033625;28;20511;-46
2021/03/12 03:35:28;;;;;;;4.20;2.13;;;8.10;99.90;;;;;;5033518;28;20538;-46
2021/03/12 03:37:55;;;;;;;4.13;1.80;;;8.10;99.90;;;;;;5034832;28;20573;-49
2021/03/12 03:40:21;;;;;;;2.30;1.40;;;7.90;99.90;;;;;;5034980;28;20462;-47
2021/03/12 03:42:49;;;;;;;2.50;1.30;;;7.70;99.90;;;;;;5032788;28;20453;-47
2021/03/12 03:45:17;;;;;;;2.90;1.63;;;8.20;99.90;;;;;;5032926;28;20534;-47
2021/03/12 03:47:52;;;;;;;4.83;1.80;;;8.10;99.90;;;;;;5033581;28;20967;-47
2021/03/12 03:50:18;;;;;;;2.73;1.50;;;8.20;99.90;;;;;;5034340;28;20594;-47
2021/03/12 03:52:45;;;;;;;3.50;1.50;;;8.20;99.90;;;;;;5032277;28;20492;-47
2021/03/12 03:55:16;;;;;;;2.50;1.30;;;8.20;99.90;;;;;;5032811;28;20445;-47
2021/03/12 03:57:43;;;;;;;4.40;2.17;;;8.30;99.90;;;;;;5033535;28;20450;-46
2021/03/12 04:00:13;;;;;;;4.80;1.60;;;7.70;99.90;;;;;;5033277;28;20514;-46
2021/03/12 04:02:44;;;;;;;7.40;1.67;;;8.30;99.90;;;;;;5035376;28;20511;-46
2021/03/12 04:05:16;;;;;;;3.90;1.43;;;7.80;99.90;;;;;;5035605;28;20591;-48
2021/03/12 04:07:52;;;;;;;3.63;1.67;;;8.30;99.90;;;;;;5036539;28;20450;-47
2021/03/12 04:10:19;;;;;;;4.37;1.40;;;8.30;99.90;;;;;;5036926;28;21064;-47
2021/03/12 04:12:47;;;;;;;4.63;1.50;;;8.30;99.90;;;;;;5035976;28;20617;-46
2021/03/12 04:15:16;;;;;;;5.50;1.80;;;8.20;99.90;;;;;;5035217;28;20454;-46
2021/03/12 04:17:43;;;;;;;4.73;1.93;;;8.50;99.90;;;;;;5035549;28;20458;-47
2021/03/12 04:20:10;;;;;;;2.57;1.43;;;8.30;99.90;;;;;;5035669;28;20673;-45
2021/03/12 04:22:38;;;;;;;6.50;1.93;;;8.20;99.90;;;;;;5031391;28;20443;-46
2021/03/12 04:25:07;;;;;;;2.73;1.53;;;7.90;99.90;;;;;;5031697;28;20460;-46
2021/03/12 04:27:34;;;;;;;6.07;2.17;;;8.00;99.90;;;;;;5031489;28;20458;-45
2021/03/12 04:30:01;;;;;;;7.97;1.83;;;8.10;99.90;;;;;;5031295;28;20469;-46
2021/03/12 04:32:30;;;;;;;3.40;1.60;;;8.20;99.90;;;;;;5031067;28;20848;-46
2021/03/12 04:34:56;;;;;;;6.30;1.67;;;8.00;99.90;;;;;;5031406;28;20536;-47
2021/03/12 04:37:23;;;;;;;2.97;1.97;;;7.70;99.90;;;;;;5031272;28;20516;-47
2021/03/12 04:39:52;;;;;;;5.90;1.80;;;8.10;99.90;;;;;;5030964;28;20505;-48
2021/03/12 04:42:21;;;;;;;5.73;2.13;;;8.30;99.90;;;;;;5030890;28;20453;-47
2021/03/12 04:44:49;;;;;;;5.33;2.33;;;7.80;99.90;;;;;;5031196;28;20828;-47
2021/03/12 04:47:16;;;;;;;5.40;1.60;;;7.80;99.90;;;;;;5032730;28;20820;-47
2021/03/12 04:49:45;;;;;;;5.53;1.60;;;8.00;99.90;;;;;;5031154;28;20539;-47
2021/03/12 04:52:13;;;;;;;5.00;2.10;;;8.20;99.90;;;;;;5031005;28;21008;-47
2021/03/12 04:54:40;;;;;;;5.20;1.53;;;7.90;99.90;;;;;;5032416;28;20562;-47
2021/03/12 04:57:07;;;;;;;4.67;2.40;;;7.50;99.90;;;;;;5031826;28;20458;-46
2021/03/12 04:59:35;;;;;;;7.00;2.17;;;7.90;99.90;;;;;;5031467;28;20480;-47
2021/03/12 05:02:04;;;;;;;3.40;1.50;;;8.30;99.90;;;;;;5034242;28;20961;-48
2021/03/12 05:04:31;;;;;;;3.83;2.00;;;7.80;99.90;;;;;;5034347;28;20457;-47
2021/03/12 05:06:59;;;;;;;4.00;2.50;;;8.10;99.90;;;;;;5032366;28;20454;-46
2021/03/12 05:09:50;;;;;;;6.47;1.77;;;8.00;99.90;;;;;;5031081;28;20474;-47
2021/03/12 05:12:20;;;;;;;5.20;2.40;;;8.00;99.90;;;;;;5030597;28;20497;-47
2021/03/12 05:14:47;;;;;;;6.33;2.53;;;8.10;99.90;;;;;;5030862;28;20536;-49
2021/03/12 05:17:13;;;;;;;6.03;2.20;;;8.10;99.90;;;;;;5030801;28;20503;-47
2021/03/12 05:19:40;;;;;;;4.97;1.80;;;8.00;99.90;;;;;;5030529;28;20482;-47
2021/03/12 05:22:07;;;;;;;5.27;2.40;;;7.90;99.90;;;;;;5030828;28;21002;-48
2021/03/12 05:24:35;;;;;;;4.63;2.37;;;8.10;99.90;;;;;;5030511;28;20446;-48
2021/03/12 05:27:03;;;;;;;4.03;3.00;;;8.00;99.90;;;;;;5032078;28;20512;-47
2021/03/12 05:29:39;;;;;;;7.60;2.80;;;7.90;99.90;;;;;;5030871;28;20477;-47
2021/03/12 05:32:06;;;;;;;8.10;2.97;;;8.10;99.90;;;;;;5030854;28;20886;-47
2021/03/12 05:34:36;;;;;;;6.97;2.80;;;7.90;99.90;;;;;;5030387;28;20458;-46
2021/03/12 05:37:03;;;;;;;7.90;3.47;;;8.00;99.90;;;;;;5030825;28;20454;-46
2021/03/12 05:39:30;;;;;;;7.30;3.70;;;8.00;99.90;;;;;;5030568;28;20498;-46
2021/03/12 05:41:57;;;;;;;7.40;4.50;;;8.00;99.90;;;;;;5030806;28;21026;-48
2021/03/12 05:44:34;;;;;;;9.90;4.07;;;7.80;99.90;;;;;;5030585;28;20814;-47
2021/03/12 05:47:04;;;;;;;8.20;4.20;;;7.80;99.90;;;;;;5033187;28;20520;-46
2021/03/12 05:49:33;;;;;;;5.33;3.67;;;7.90;99.90;;;;;;5035594;28;20462;-46
2021/03/12 05:51:59;;;;;;;13.37;5.13;;;8.00;99.90;;;;;;5034285;28;20485;-45
2021/03/12 05:54:26;;;;;;;7.00;4.20;;;8.00;99.90;;;;;;5034106;28;20421;-45
2021/03/12 05:56:55;;;;;;;7.50;4.13;;;8.10;99.90;;;;;;5034325;28;20464;-47
2021/03/12 05:59:21;;;;;;;9.30;5.10;;;8.30;99.90;;;;;;5034411;28;20624;-46
2021/03/12 06:01:51;;;;;;;6.10;4.73;;;8.10;99.90;;;;;;5034478;28;20429;-47
2021/03/12 06:04:18;;;;;;;8.90;4.00;;;8.10;99.90;;;;;;5034953;28;20449;-49
2021/03/12 06:06:46;;;;;;;7.10;3.93;;;7.90;99.90;;;;;;5037415;28;20949;-46
2021/03/12 06:09:15;;;;;;;11.43;4.23;;;7.50;99.90;;;;;;5037123;28;20469;-45
2021/03/12 06:11:42;;;;;;;5.63;4.50;;;7.80;99.90;;;;;;5035665;28;20478;-47
2021/03/12 06:14:09;;;;;;;9.73;4.80;;;7.70;99.90;;;;;;5034067;28;20970;-46
2021/03/12 06:16:48;;;;;;;12.00;4.37;;;7.90;99.90;;;;;;5034104;28;20940;-47
2021/03/12 06:19:15;;;;;;;5.00;3.80;;;8.10;99.90;;;;;;5035368;28;20458;-48
2021/03/12 06:21:46;;;;;;;5.13;3.37;;;7.80;99.90;;;;;;5033917;28;20477;-48
2021/03/12 06:24:29;;;;;;;8.80;3.80;;;8.20;99.90;;;;;;5033203;28;20441;-48
2021/03/12 06:27:35;;;;;;;6.70;3.40;;;8.30;99.90;;;;;;5015559;28;20458;-47
2021/03/12 06:30:33;;;;;;;6.67;4.40;;;8.20;99.90;;;;;;5036200;28;20481;-46
2021/03/12 06:33:28;;;;;;;8.13;5.70;;;8.00;99.90;;;;;;5035896;28;20476;-46
2021/03/12 06:36:29;;;;;;;6.97;4.17;;;7.90;99.90;;;;;;5035453;28;20992;-47
2021/03/12 06:39:18;;;;;;;8.90;5.07;;;8.00;99.90;;;;;;5036505;28;20492;-46
2021/03/12 06:41:51;;;;;;;8.53;4.70;;;8.10;99.90;;;;;;5033941;28;20963;-46
2021/03/12 06:44:28;;;;;;;9.53;5.00;;;8.10;99.90;;;;;;5034181;28;20547;-47
2021/03/12 06:46:57;;;;;;;7.83;5.30;;;8.50;99.90;;;;;;5033843;28;20457;-48
2021/03/12 06:49:24;;;;;;;10.83;5.87;;;8.50;99.90;;;;;;5033367;28;20477;-46
2021/03/12 06:52:12;;;;;;;12.37;6.50;;;8.60;99.90;;;;;;5034390;28;20496;-46
2021/03/12 06:54:53;;;;;;;7.23;5.00;;;8.20;99.90;;;;;;5034251;28;20470;-49
2021/03/12 06:57:24;;;;;;;9.37;5.67;;;7.70;99.90;;;;;;5034550;28;20789;-47
2021/03/12 07:00:10;;;;;;;9.70;6.40;;;8.00;99.90;;;;;;5034696;28;20452;-46
2021/03/12 07:02:41;;;;;;;11.07;6.27;;;8.30;99.90;;;;;;5033142;28;20449;-47
2021/03/12 07:05:15;;;;;;;8.13;6.60;;;7.70;99.90;;;;;;5033306;28;20458;-49
2021/03/12 07:07:55;;;;;;;8.67;5.60;;;8.30;99.90;;;;;;5033682;28;20488;-48
2021/03/12 07:10:46;;;;;;;8.60;5.23;;;7.80;99.90;;;;;;5032826;28;20481;-47
2021/03/12 07:13:25;;;;;;;10.30;7.07;;;8.30;99.90;;;;;;5032441;28;20489;-47
2021/03/12 07:15:58;;;;;;;7.87;6.33;;;8.20;99.90;;;;;;5032712;28;20462;-47
2021/03/12 07:18:35;;;;;;;10.53;6.80;;;8.60;99.90;;;;;;5034082;28;20455;-45
2021/03/12 07:21:07;;;;;;;9.30;7.53;;;8.70;99.90;;;;;;5034525;28;20476;-47
2021/03/12 07:23:37;;;;;;;9.87;7.03;;;8.00;99.90;;;;;;5033615;28;20590;-48
2021/03/12 07:26:06;;;;;;;7.80;6.50;;;8.40;99.90;;;;;;5034261;28;20465;-47
2021/03/12 07:28:34;;;;;;;9.20;5.83;;;7.80;99.90;;;;;;5033565;28;20481;-46
2021/03/12 07:31:35;;;;;;;8.10;7.30;;;8.40;99.90;;;;;;5032247;28;20577;-46
2021/03/12 07:34:06;;;;;;;9.70;7.37;;;8.50;99.90;;;;;;5032142;28;20448;-48
2021/03/12 07:36:42;;;;;;;6.17;5.57;;;8.60;99.90;;;;;;5033325;28;20553;-47
2021/03/12 07:39:12;;;;;;;8.77;5.73;;;8.60;99.90;;;;;;5033423;28;20613;-47
2021/03/12 07:41:39;;;;;;;6.40;5.53;;;8.40;99.90;;;;;;5033301;28;20446;-47
2021/03/12 07:44:21;;;;;;;9.00;5.97;;;8.80;99.90;;;;;;5034328;28;20457;-47
2021/03/12 07:47:19;;;;;;;11.93;5.33;;;8.20;99.90;;;;;;5033069;28;20489;-49
2021/03/12 07:49:47;;;;;;;8.90;6.30;;;8.70;99.90;;;;;;5033210;28;20482;-47
2021/03/12 07:52:39;;;;;;;11.03;5.27;;;8.70;99.90;;;;;;5032013;28;20560;-48
2021/03/12 07:55:08;;;;;;;8.53;5.40;;;8.80;99.90;;;;;;5032077;28;20521;-46
2021/03/12 07:57:41;;;;;;;8.80;5.67;;;8.80;99.90;;;;;;5032425;28;20462;-47
2021/03/12 08:00:30;;;;;;;10.07;6.40;;;8.80;99.90;;;;;;5033313;28;20467;-48
2021/03/12 08:03:28;;;;;;;6.80;5.50;;;8.80;99.90;;;;;;5031764;28;20789;-46
2021/03/12 08:06:29;;;;;;;9.40;5.63;;;8.40;99.90;;;;;;5033254;28;20427;-47
2021/03/12 08:09:31;;;;;;;11.73;6.30;;;8.50;99.90;;;;;;5032516;28;20452;-49
2021/03/12 08:12:31;;;;;;;6.60;5.00;;;8.50;99.90;;;;;;5029481;28;20986;-47
2021/03/12 08:15:18;;;;;;;11.37;6.37;;;9.30;99.90;;;;;;5032959;28;20950;-49
2021/03/12 08:18:06;;;;;;;6.83;5.30;;;9.10;99.90;;;;;;5032198;28;20448;-47
2021/03/12 08:20:42;;;;;;;10.50;5.73;;;9.00;99.90;;;;;;5031767;28;21012;-47
2021/03/12 08:23:33;;;;;;;10.03;5.63;;;9.00;99.90;;;;;;5030884;28;20791;-47
2021/03/12 08:26:05;;;;;;;6.50;5.37;;;9.10;99.90;;;;;;5031148;28;20471;-48
2021/03/12 08:28:50;;;;;;;10.43;5.67;;;9.10;99.90;;;;;;5033043;28;21010;-46
2021/03/12 08:31:42;;;;;;;9.90;5.63;;;9.10;99.90;;;;;;5031719;28;20485;-50
2021/03/12 08:34:47;;;;;;;8.17;5.63;;;9.20;99.90;;;;;;5019761;28;20883;-48
2021/03/12 08:37:53;;;;;;;9.40;5.83;;;9.30;99.90;;;;;;5033863;28;20451;-47
2021/03/12 08:40:42;;;;;;;9.40;6.00;;;9.40;99.90;;;;;;5034187;28;20529;-48
2021/03/12 08:43:25;;;;;;;8.10;6.23;;;9.50;99.90;;;;;;5032561;28;20566;-47
2021/03/12 08:46:16;;;;;;;9.33;5.57;;;9.30;99.90;;;;;;5034073;28;20538;-47
2021/03/12 08:48:48;;;;;;;8.80;6.00;;;9.60;99.90;;;;;;5032756;28;20538;-50
2021/03/12 08:51:19;;;;;;;6.80;4.67;;;9.30;99.90;;;;;;5034934;28;20884;-47
2021/03/12 08:53:53;;;;;;;7.03;6.33;;;9.60;99.90;;;;;;5033697;28;20517;-48
2021/03/12 08:56:28;;;;;;;7.00;5.50;;;9.20;99.90;;;;;;5032708;28;20523;-47
2021/03/12 08:58:56;;;;;;;7.97;5.77;;;9.40;99.90;;;;;;5031686;28;20471;-48
2021/03/12 09:01:41;;;;;;;6.63;6.00;;;9.10;99.90;;;;;;5032492;28;20419;-47
2021/03/12 09:04:22;;;;;;;8.63;6.50;;;9.50;99.90;;;;;;5031192;28;20465;-49
2021/03/12 09:07:01;;;;;;;11.80;5.70;;;9.50;99.90;;;;;;5030979;28;20814;-49
2021/03/12 09:09:47;;;;;;;6.43;5.40;;;10.20;99.90;;;;;;5031773;28;20454;-49
2021/03/12 09:12:34;;;;;;;7.63;5.47;;;9.60;99.90;;;;;;5030132;28;20544;-50
2021/03/12 09:15:09;;;;;;;8.40;5.03;;;9.70;99.90;;;;;;5030644;28;20547;-49
2021/03/12 09:17:38;;;;;;;12.03;5.63;;;10.10;99.90;;;;;;5030200;28;20463;-47
2021/03/12 09:20:09;;;;;;;7.80;5.10;;;9.90;99.90;;;;;;5029816;28;20475;-49
2021/03/12 09:22:49;;;;;;;7.67;6.10;;;9.70;99.90;;;;;;5030395;28;20475;-49
2021/03/12 09:25:24;;;;;;;11.97;5.57;;;10.00;99.90;;;;;;5013884;28;20908;-48
2021/03/12 09:28:13;;;;;;;5.10;4.60;;;9.80;99.90;;;;;;5030534;28;20551;-48
2021/03/12 09:30:53;;;;;;;11.40;7.10;;;9.90;99.90;;;;;;5015462;28;20577;-49
2021/03/12 09:33:43;;;;;;;8.90;5.40;;;9.90;99.90;;;;;;5029790;28;20446;-48
2021/03/12 09:36:29;;;;;;;10.43;5.60;;;10.30;99.90;;;;;;5030772;28;20455;-48
2021/03/12 09:39:05;;;;;;;5.83;5.33;;;10.40;99.90;;;;;;5030394;28;20471;-49
2021/03/12 09:41:35;;;;;;;7.90;5.20;;;10.20;99.90;;;;;;5030431;28;20455;-50
2021/03/12 09:44:06;;;;;;;8.30;4.77;;;10.50;99.90;;;;;;5030042;28;20805;-48
2021/03/12 09:46:39;;;;;;;7.17;5.17;;;10.90;99.90;;;;;;5029977;28;20447;-49
2021/03/12 09:49:11;;;;;;;7.77;5.13;;;10.90;99.90;;;;;;5030983;28;20550;-49
2021/03/12 09:51:42;;;;;;;7.27;4.70;;;11.00;99.90;;;;;;5030903;28;21071;-48
2021/03/12 09:54:09;;;;;;;9.27;5.80;;;10.70;99.90;;;;;;5030980;28;20447;-48
2021/03/12 09:56:45;;;;;;;7.30;4.60;;;10.70;99.90;;;;;;5031283;28;20448;-47
2021/03/12 09:59:13;;;;;;;7.00;4.40;;;10.80;99.90;;;;;;5030770;28;20991;-48
2021/03/12 10:01:43;;;;;;;7.83;4.40;;;10.40;99.90;;;;;;5032777;28;20432;-47
2021/03/12 10:04:54;;;;;;;10.10;4.57;;;10.60;99.90;;;;;;5016473;28;20508;-50
2021/03/12 10:08:03;;;;;;;7.90;4.07;;;10.90;99.90;;;;;;5023371;28;20460;-49
2021/03/12 10:10:41;;;;;;;11.50;4.27;;;10.80;99.90;;;;;;5030636;28;20468;-48
2021/03/12 10:13:09;;;;;;;8.37;3.83;;;10.90;99.90;;;;;;5029591;28;21061;-49
2021/03/12 10:15:42;;;;;;;7.17;4.20;;;11.00;99.90;;;;;;5030127;28;20467;-48
2021/03/12 10:18:32;;;;;;;12.40;5.20;;;10.80;99.90;;;;;;5029660;28;20892;-49
2021/03/12 10:21:08;;;;;;;8.43;4.27;;;11.00;99.90;;;;;;5031069;28;20754;-48
2021/03/12 10:23:35;;;;;;;10.43;5.20;;;10.90;99.80;;;;;;5030697;28;20428;-48
2021/03/12 10:26:05;;;;;;;8.27;3.43;;;10.90;99.70;;;;;;5031076;28;20435;-48
2021/03/12 10:28:34;;;;;;;5.10;3.83;;;10.80;99.50;;;;;;5030462;28;20932;-48
2021/03/12 10:31:01;;;;;;;6.80;3.63;;;10.60;99.10;;;;;;5029543;28;20477;-49
2021/03/12 10:33:30;;;;;;;6.93;3.20;;;10.80;98.70;;;;;;5032844;28;20994;-48
2021/03/12 10:35:59;;;;;;;14.63;3.93;;;10.80;98.70;;;;;;5033794;28;20821;-49
2021/03/12 10:38:27;;;;;;;10.00;3.83;;;10.90;98.80;;;;;;5033980;28;20435;-49
2021/03/12 10:40:58;;;;;;;8.10;4.00;;;11.00;98.90;;;;;;5032680;28;20501;-48
2021/03/12 10:43:27;;;;;;;9.30;3.47;;;11.20;97.70;;;;;;5033629;28;20428;-48
2021/03/12 10:45:56;;;;;;;6.10;3.20;;;10.50;96.90;;;;;;5033771;28;20466;-48
2021/03/12 10:48:26;;;;;;;7.23;3.80;;;11.30;97.50;;;;;;5034120;28;20435;-49
2021/03/12 10:50:55;;;;;;;8.20;3.63;;;11.30;97.40;;;;;;5033937;28;20465;-49
2021/03/12 10:53:22;;;;;;;8.13;3.53;;;11.30;97.00;;;;;;5033768;28;20487;-49
2021/03/12 10:55:50;;;;;;;5.50;3.13;;;11.10;96.20;;;;;;5034096;28;20435;-48
2021/03/12 10:58:26;;;;;;;10.40;4.97;;;11.20;96.50;;;;;;5033670;28;20439;-48
2021/03/12 11:01:05;;;;;;;9.00;3.97;;;10.80;96.60;;;;;;5033893;28;20436;-48
2021/03/12 11:03:32;;;;;;;10.10;3.53;;;11.20;96.90;;;;;;5033147;28;20762;-48
2021/03/12 11:05:58;;;;;;;5.17;3.10;;;11.40;96.60;;;;;;5033424;28;20806;-49
2021/03/12 11:08:27;;;;;;;6.83;3.60;;;11.60;96.50;;;;;;5033394;28;20488;-48
2021/03/12 11:10:54;;;;;;;8.87;4.27;;;11.80;94.50;;;;;;5033559;28;20990;-49
2021/03/12 11:13:20;;;;;;;9.70;3.80;;;11.40;94.80;;;;;;5032762;28;20472;-49
2021/03/12 11:15:47;;;;;;;9.37;4.00;;;11.50;94.90;;;;;;5032805;28;20458;-49
2021/03/12 11:18:14;;;;;;;10.60;3.63;;;11.90;94.60;;;;;;5032800;28;20435;-48
2021/03/12 11:20:41;;;;;;;17.47;3.70;;;12.00;94.30;;;;;;5032499;28;20449;-48
2021/03/12 11:23:08;;;;;;;9.87;3.50;;;11.70;94.30;;;;;;5032700;28;20989;-47
2021/03/12 11:25:34;;;;;;;9.00;3.53;;;11.90;93.70;;;;;;5032895;28;20441;-48
2021/03/12 11:28:03;;;;;;;8.30;3.50;;;11.40;92.30;;;;;;5032594;28;20439;-48
2021/03/12 11:30:30;;;;;;;14.70;3.07;;;11.00;91.00;;;;;;5032511;28;20953;-48
2021/03/12 11:32:56;;;;;;;9.73;3.30;;;11.40;91.70;;;;;;5032272;28;20483;-47
2021/03/12 11:35:24;;;;;;;16.07;5.63;;;11.80;91.60;;;;;;5032767;28;20569;-48
2021/03/12 11:37:50;;;;;;;6.73;4.03;;;11.70;91.60;;;;;;5032557;28;20450;-47
2021/03/12 11:40:18;;;;;;;8.10;3.30;;;11.90;91.40;;;;;;5032123;28;20451;-47
2021/03/12 11:42:44;;;;;;;6.90;3.60;;;11.80;90.90;;;;;;5031976;28;20475;-47
2021/03/12 11:45:13;;;;;;;6.97;3.50;;;11.80;90.60;;;;;;5031446;28;20511;-49
2021/03/12 11:47:40;;;;;;;8.40;4.00;;;12.10;90.40;;;;;;5032423;28;20582;-48
2021/03/12 11:50:09;;;;;;;8.23;3.70;;;12.10;89.40;;;;;;5030708;28;20469;-48
2021/03/12 11:52:37;;;;;;;6.07;3.00;;;12.10;89.20;;;;;;5031200;28;20476;-48
2021/03/12 11:55:06;;;;;;;7.93;4.30;;;11.90;88.80;;;;;;5031829;28;20423;-51
2021/03/12 11:57:34;;;;;;;7.20;3.63;;;12.10;88.30;;;;;;5031842;28;20842;-49
2021/03/12 12:00:01;;;;;;;5.00;3.90;;;11.90;89.00;;;;;;5031524;28;20971;-49
2021/03/12 12:02:27;;;;;;;12.00;4.20;;;12.00;89.10;;;;;;5031105;28;20440;-49
2021/03/12 12:04:54;;;;;;;9.90;5.60;;;12.30;89.80;;;;;;5031540;28;20520;-49
2021/03/12 12:07:20;;;;;;;9.57;5.03;;;12.20;90.00;;;;;;5031502;28;20440;-48
2021/03/12 12:09:48;;;;;;;7.83;4.93;;;12.10;88.60;;;;;;5031152;28;20480;-49
2021/03/12 12:12:15;;;;;;;12.20;4.67;;;12.50;89.50;;;;;;5031920;28;20480;-49
2021/03/12 12:14:42;;;;;;;8.43;5.30;;;12.30;89.60;;;;;;5031242;28;20433;-48
2021/03/12 12:17:09;;;;;;;8.77;4.50;;;12.40;88.60;;;;;;5031082;28;20844;-47
2021/03/12 12:19:36;;;;;;;8.07;5.00;;;12.40;87.80;;;;;;5030742;28;20493;-51
2021/03/12 12:22:03;;;;;;;7.00;4.50;;;12.30;85.00;;;;;;5030983;28;20442;-49
2021/03/12 12:24:29;;;;;;;11.17;6.30;;;12.30;85.60;;;;;;5031008;28;20459;-49
2021/03/12 12:26:57;;;;;;;14.50;5.90;;;12.20;86.10;;;;;;5031073;28;20659;-48
2021/03/12 12:29:23;;;;;;;11.83;4.67;;;12.50;86.30;;;;;;5030980;28;20991;-48
2021/03/12 12:31:50;;;;;;;7.03;4.60;;;12.60;85.90;;;;;;5031330;28;20440;-49
2021/03/12 12:34:16;;;;;;;8.00;5.70;;;12.10;84.40;;;;;;5031325;28;20934;-49
2021/03/12 12:36:42;;;;;;;7.17;4.60;;;12.30;83.70;;;;;;5032149;28;20446;-48
2021/03/12 12:39:10;;;;;;;9.20;4.23;;;12.30;83.90;;;;;;5032441;28;20456;-48
2021/03/12 12:41:40;;;;;;;9.53;4.30;;;12.20;82.50;;;;;;5032385;28;20474;-48
2021/03/12 12:44:08;;;;;;;6.93;3.93;;;12.40;82.80;;;;;;5031073;28;20975;-49
2021/03/12 12:46:34;;;;;;;6.27;3.47;;;12.50;81.70;;;;;;5030669;28;20442;-49
2021/03/12 12:49:01;;;;;;;5.97;3.80;;;12.60;82.80;;;;;;5030585;28;20972;-48
2021/03/12 12:51:28;;;;;;;9.13;5.33;;;12.30;81.30;;;;;;5030767;28;20431;-48
2021/03/12 12:53:55;;;;;;;5.30;4.00;;;12.50;81.10;;;;;;5030129;28;21081;-49
2021/03/12 12:56:21;;;;;;;12.20;3.90;;;12.30;80.00;;;;;;5030953;28;20436;-47
2021/03/12 12:58:48;;;;;;;5.13;3.60;;;12.30;79.90;;;;;;5029461;28;20541;-48
2021/03/12 13:01:15;;;;;;;6.87;4.00;;;12.30;80.30;;;;;;5030924;28;20999;-49
2021/03/12 13:03:42;;;;;;;10.13;3.30;;;12.20;80.00;;;;;;5031283;28;20519;-48
2021/03/12 13:06:09;;;;;;;5.00;3.13;;;12.20;78.50;;;;;;5031791;28;20431;-49
2021/03/12 13:08:35;;;;;;;5.60;3.20;;;12.30;77.20;;;;;;5031057;28;20515;-49
2021/03/12 13:11:02;;;;;;;5.53;3.43;;;12.20;77.20;;;;;;5031056;28;20428;-49
2021/03/12 13:13:29;;;;;;;6.50;3.57;;;12.30;76.70;;;;;;5030299;28;20509;-49
2021/03/12 13:15:56;;;;;;;9.20;5.20;;;12.40;76.50;;;;;;5030650;28;20434;-48
2021/03/12 13:18:25;;;;;;;8.90;3.33;;;12.50;76.40;;;;;;5030903;28;20437;-47